createdAt,value
2022-11-14T00:01:10.608Z,30.10
2022-11-14T00:03:58.103Z,34.25
2022-11-14T00:06:43.766Z,26.77
2022-11-14T00:09:29.499Z,27.80
2022-11-14T00:12:16.273Z,34.10
2022-11-14T00:15:02.487Z,28.70
2022-11-14T00:17:49.059Z,26.13
2022-11-14T00:20:36.041Z,24.67
2022-11-14T00:23:21.894Z,23.25
2022-11-14T00:26:07.515Z,18.98
2022-11-14T00:28:54.701Z,22.42
2022-11-14T00:31:40.481Z,22.35
2022-11-14T00:34:25.953Z,19.73
2022-11-14T00:37:11.571Z,18.33
2022-11-14T00:39:58.815Z,17.70
2022-11-14T00:42:45.475Z,19.75
2022-11-14T00:45:31.071Z,21.20
2022-11-14T00:48:16.757Z,19.77
2022-11-14T00:51:02.724Z,21.10
2022-11-14T00:53:48.405Z,17.73
2022-11-14T00:56:34.938Z,21.15
2022-11-14T00:59:20.376Z,19.80
2022-11-14T01:02:06.721Z,17.77
2022-11-14T01:04:53.725Z,24.35
2022-11-14T01:07:38.840Z,20.02
2022-11-14T01:10:24.719Z,19.05
2022-11-14T01:13:12.507Z,17.52
2022-11-14T01:16:01.512Z,17.25
2022-11-14T01:18:46.821Z,16.73
2022-11-14T01:21:32.439Z,18.02
2022-11-14T01:24:18.315Z,19.63
2022-11-14T01:27:03.849Z,18.73
2022-11-14T01:29:49.177Z,20.63
2022-11-14T01:32:35.349Z,15.10
2022-11-14T01:35:22.939Z,19.10
2022-11-14T01:38:13.208Z,18.90
2022-11-14T01:40:58.541Z,17.92
2022-11-14T01:43:45.320Z,19.25
2022-11-14T01:46:36.544Z,15.45
2022-11-14T01:49:37.936Z,16.30
2022-11-14T01:52:30.929Z,16.45
2022-11-14T01:55:17.521Z,19.45
2022-11-14T01:58:03.468Z,16.05
2022-11-14T02:00:49.335Z,18.52
2022-11-14T02:03:38.155Z,15.73
2022-11-14T02:06:27.386Z,17.10
2022-11-14T02:09:13.264Z,14.18
2022-11-14T02:12:01.984Z,17.35
2022-11-14T02:14:51.703Z,14.30
2022-11-14T02:17:37.171Z,18.70
2022-11-14T02:20:24.957Z,12.45
2022-11-14T02:23:11.822Z,13.23
2022-11-14T02:25:57.653Z,14.40
2022-11-14T02:28:43.110Z,15.98
2022-11-14T02:31:28.700Z,15.98
2022-11-14T02:34:16.823Z,13.73
2022-11-14T02:37:01.904Z,13.55
2022-11-14T02:39:48.167Z,13.45
2022-11-14T02:42:33.456Z,13.50
2022-11-14T02:45:21.042Z,15.60
2022-11-14T02:48:06.733Z,15.10
2022-11-14T02:50:53.111Z,12.90
2022-11-14T02:53:38.872Z,13.65
2022-11-14T02:56:25.508Z,13.45
2022-11-14T02:59:14.810Z,12.18
2022-11-14T03:02:00.792Z,15.73
2022-11-14T03:04:51.078Z,17.10
2022-11-14T03:07:36.623Z,15.20
2022-11-14T03:10:23.453Z,16.17
2022-11-14T03:13:09.762Z,15.07
2022-11-14T03:15:56.331Z,13.18
2022-11-14T03:18:42.693Z,15.45
2022-11-14T03:21:30.443Z,14.75
2022-11-14T03:24:16.099Z,15.55
2022-11-14T03:27:01.731Z,15.35
2022-11-14T03:29:50.217Z,13.50
2022-11-14T03:32:35.819Z,15.57
2022-11-14T03:35:22.529Z,12.95
2022-11-14T03:38:08.208Z,14.57
2022-11-14T03:40:54.519Z,13.88
2022-11-14T03:43:40.116Z,13.68
2022-11-14T03:46:25.810Z,13.73
2022-11-14T03:49:11.337Z,12.77
2022-11-14T03:51:56.821Z,13.55
2022-11-14T03:54:44.316Z,15.05
2022-11-14T03:57:29.776Z,12.73
2022-11-14T04:00:16.333Z,19.40
2022-11-14T04:03:01.757Z,12.85
2022-11-14T04:05:47.560Z,12.88
2022-11-14T04:08:33.559Z,12.98
2022-11-14T04:11:20.973Z,11.65
2022-11-14T04:14:06.765Z,15.68
2022-11-14T04:16:52.218Z,15.75
2022-11-14T04:19:37.751Z,14.15
2022-11-14T04:22:23.112Z,11.32
2022-11-14T04:25:10.197Z,12.23
2022-11-14T04:27:55.796Z,10.82
2022-11-14T04:30:42.531Z,13.90
2022-11-14T04:33:29.158Z,13.55
2022-11-14T04:36:14.741Z,14.70
2022-11-14T04:39:00.633Z,11.98
2022-11-14T04:41:46.209Z,12.32
2022-11-14T04:44:31.559Z,12.98
2022-11-14T04:47:19.452Z,13.77
2022-11-14T04:50:05.657Z,13.50
2022-11-14T04:52:53.618Z,12.23
2022-11-14T04:55:39.556Z,13.35
2022-11-14T04:58:28.295Z,14.52
2022-11-14T05:01:14.912Z,14.38
2022-11-14T05:04:00.606Z,13.07
2022-11-14T05:06:46.324Z,14.48
2022-11-14T05:09:32.243Z,13.57
2022-11-14T05:12:17.805Z,12.32
2022-11-14T05:15:03.723Z,12.88
2022-11-14T05:17:49.423Z,10.95
2022-11-14T05:20:36.426Z,14.40
2022-11-14T05:23:23.768Z,14.68
2022-11-14T05:26:12.269Z,14.88
2022-11-14T05:28:58.738Z,11.20
2022-11-14T05:31:45.335Z,12.90
2022-11-14T05:34:31.148Z,11.55
2022-11-14T05:37:17.475Z,13.00
2022-11-14T05:40:04.169Z,11.10
2022-11-14T05:42:49.759Z,13.02
2022-11-14T05:45:37.334Z,13.63
2022-11-14T05:48:24.332Z,14.52
2022-11-14T05:51:12.649Z,14.50
2022-11-14T05:53:58.167Z,15.02
2022-11-14T05:56:43.704Z,17.30
2022-11-14T05:59:30.038Z,13.18
2022-11-14T06:02:16.260Z,13.80
2022-11-14T06:05:02.020Z,17.85
2022-11-14T06:07:47.405Z,13.90
2022-11-14T06:10:35.569Z,13.10
2022-11-14T06:13:23.796Z,14.15
2022-11-14T06:16:15.223Z,14.20
2022-11-14T06:19:00.653Z,13.05
2022-11-14T06:21:46.200Z,16.45
2022-11-14T06:24:35.491Z,16.08
2022-11-14T06:27:21.164Z,12.88
2022-11-14T06:30:07.257Z,15.93
2022-11-14T06:32:58.374Z,17.35
2022-11-14T06:35:43.871Z,17.33
2022-11-14T06:38:32.616Z,20.83
2022-11-14T06:41:20.828Z,16.15
2022-11-14T06:44:08.281Z,20.40
2022-11-14T06:46:53.968Z,19.90
2022-11-14T06:49:40.903Z,21.58
2022-11-14T06:52:27.774Z,24.92
2022-11-14T06:55:13.394Z,22.55
2022-11-14T06:57:58.926Z,22.20
2022-11-14T07:00:44.502Z,20.55
2022-11-14T07:03:30.039Z,21.15
2022-11-14T07:06:21.362Z,21.92
2022-11-14T07:09:10.772Z,23.83
2022-11-14T07:11:59.504Z,22.00
2022-11-14T07:14:44.964Z,24.65
2022-11-14T07:17:31.619Z,24.77
2022-11-14T07:20:20.902Z,20.50
2022-11-14T07:23:06.447Z,19.63
2022-11-14T07:25:53.939Z,25.45
2022-11-14T07:28:47.049Z,25.38
2022-11-14T07:31:36.175Z,22.88
2022-11-14T07:34:22.033Z,26.30
2022-11-14T07:37:07.799Z,29.10
2022-11-14T07:39:53.345Z,24.80
2022-11-14T07:42:39.250Z,32.45
2022-11-14T07:45:24.709Z,29.23
2022-11-14T07:48:10.354Z,27.80
2022-11-14T07:51:04.511Z,24.02
2022-11-14T07:53:53.068Z,29.02
2022-11-14T07:56:38.673Z,28.95
2022-11-14T07:59:23.961Z,43.53
2022-11-14T08:02:13.630Z,24.95
2022-11-14T08:05:01.401Z,25.70
2022-11-14T08:07:47.308Z,23.05
2022-11-14T08:10:34.180Z,23.48
2022-11-14T08:13:35.130Z,20.77
2022-11-14T08:16:21.905Z,26.58
2022-11-14T08:19:07.497Z,23.67
2022-11-14T08:21:53.061Z,22.25
2022-11-14T08:24:38.691Z,24.48
2022-11-14T08:27:24.840Z,20.40
2022-11-14T08:30:11.178Z,26.83
2022-11-14T08:32:56.487Z,21.67
2022-11-14T08:35:42.208Z,25.40
2022-11-14T08:38:28.295Z,20.85
2022-11-14T08:41:14.853Z,20.60
2022-11-14T08:44:00.454Z,24.25
2022-11-14T08:46:46.676Z,25.48
2022-11-14T08:49:32.092Z,23.95
2022-11-14T08:52:18.856Z,23.33
2022-11-14T08:55:04.651Z,29.98
2022-11-14T08:57:54.163Z,28.00
2022-11-14T09:00:40.577Z,28.23
2022-11-14T09:03:27.545Z,25.00
2022-11-14T09:06:14.061Z,25.65
2022-11-14T09:09:00.483Z,28.55
2022-11-14T09:11:46.172Z,28.45
2022-11-14T09:14:31.898Z,27.17
2022-11-14T09:17:17.670Z,21.27
2022-11-14T09:20:03.277Z,32.70
2022-11-14T09:22:52.260Z,26.45
2022-11-14T09:25:38.669Z,23.67
2022-11-14T09:28:25.503Z,31.30
2022-11-14T09:31:13.157Z,25.77
2022-11-14T09:33:58.609Z,21.88
2022-11-14T09:36:44.601Z,27.88
2022-11-14T09:39:30.081Z,32.30
2022-11-14T09:42:36.820Z,30.83
2022-11-14T09:45:22.318Z,27.30
2022-11-14T09:48:24.820Z,32.17
2022-11-14T09:51:17.059Z,31.48
2022-11-14T09:54:20.011Z,30.80
2022-11-14T09:59:59.186Z,30.88
2022-11-14T10:03:14.519Z,29.50
2022-11-14T10:06:30.796Z,31.70
2022-11-14T10:09:19.546Z,24.80
2022-11-14T10:12:22.795Z,36.80
2022-11-14T10:15:22.636Z,29.10
2022-11-14T10:18:22.492Z,32.15
2022-11-14T10:21:11.051Z,30.33
2022-11-14T10:24:34.361Z,30.08
2022-11-14T10:27:30.061Z,28.52
2022-11-14T10:30:20.161Z,27.42
2022-11-14T10:33:17.752Z,30.05
2022-11-14T10:36:17.409Z,25.52
2022-11-14T10:39:21.970Z,24.33
2022-11-14T10:42:15.551Z,27.67
2022-11-14T10:45:17.410Z,21.27
2022-11-14T10:48:44.110Z,22.42
2022-11-14T10:51:34.858Z,23.48
2022-11-14T10:54:23.611Z,22.48
2022-11-14T10:57:19.483Z,25.70
2022-11-14T11:00:16.965Z,28.90
2022-11-14T11:03:04.208Z,27.80
2022-11-14T11:05:54.828Z,24.63
2022-11-14T11:09:02.770Z,28.50
2022-11-14T11:11:58.811Z,33.70
2022-11-14T11:15:16.165Z,30.13
2022-11-14T11:18:26.891Z,26.45
2022-11-14T11:21:14.760Z,27.95
2022-11-14T11:24:00.267Z,28.33
2022-11-14T11:26:47.075Z,25.75
2022-11-14T11:29:32.556Z,32.75
2022-11-14T11:32:29.262Z,29.63
2022-11-14T11:35:16.961Z,26.90
2022-11-14T11:38:05.292Z,33.17
2022-11-14T11:41:33.271Z,35.20
2022-11-14T11:44:39.661Z,32.30
2022-11-14T11:47:26.858Z,29.92
2022-11-14T11:50:17.793Z,29.70
2022-11-14T11:53:26.411Z,30.75
2022-11-14T11:56:12.993Z,31.05
2022-11-14T11:59:34.643Z,30.60
2022-11-14T12:02:26.472Z,34.90
2022-11-14T12:05:16.916Z,35.38
2022-11-14T12:08:14.088Z,35.33
2022-11-14T12:11:04.650Z,34.10
2022-11-14T12:14:01.000Z,34.58
2022-11-14T12:16:52.913Z,38.97
2022-11-14T12:19:41.502Z,35.50
2022-11-14T12:22:55.883Z,35.10
2022-11-14T12:25:57.245Z,37.55
2022-11-14T12:29:10.117Z,37.55
2022-11-14T12:32:03.680Z,38.33
2022-11-14T12:34:50.048Z,45.22
2022-11-14T12:37:51.308Z,43.83
2022-11-14T12:40:57.707Z,43.90
2022-11-14T12:43:44.734Z,44.75
2022-11-14T12:47:06.736Z,42.80
2022-11-14T12:49:52.878Z,44.10
2022-11-14T12:52:41.274Z,49.50
2022-11-14T12:55:31.040Z,46.60
2022-11-14T12:58:58.246Z,48.67
2022-11-14T13:01:54.409Z,47.25
2022-11-14T13:05:02.733Z,46.65
2022-11-14T13:08:00.484Z,47.83
2022-11-14T13:10:47.351Z,45.95
2022-11-14T13:14:11.904Z,46.08
2022-11-14T13:17:34.576Z,47.20
2022-11-14T13:20:53.514Z,48.42
2022-11-14T13:23:43.166Z,43.88
2022-11-14T13:26:32.403Z,54.90
2022-11-14T13:29:36.732Z,50.78
2022-11-14T13:32:41.072Z,41.83
2022-11-14T13:35:50.077Z,51.40
2022-11-14T13:38:51.134Z,49.55
2022-11-14T13:42:10.315Z,43.47
2022-11-14T13:45:13.717Z,49.47
2022-11-14T13:48:26.412Z,52.63
2022-11-14T13:51:41.841Z,48.03
2022-11-14T13:54:23.717Z,49.05
2022-11-14T13:57:32.254Z,44.63
2022-11-14T14:00:21.285Z,43.28
2022-11-14T14:03:13.127Z,45.35
2022-11-14T14:06:13.497Z,41.90
2022-11-14T14:09:15.388Z,47.03
2022-11-14T14:12:44.636Z,50.25
2022-11-14T14:15:41.917Z,48.67
2022-11-14T14:18:41.448Z,43.70
2022-11-14T14:21:55.007Z,44.38
2022-11-14T14:27:58.458Z,43.03
2022-11-14T14:31:10.405Z,44.90
2022-11-14T14:33:55.655Z,37.90
2022-11-14T14:36:50.965Z,40.55
2022-11-14T14:39:37.828Z,34.75
2022-11-14T14:42:27.541Z,40.65
2022-11-14T14:48:12.886Z,35.13
2022-11-14T14:53:56.338Z,40.00
2022-11-14T14:56:54.153Z,35.67
2022-11-14T14:59:42.229Z,43.70
2022-11-14T15:02:29.565Z,43.15
2022-11-14T15:05:29.387Z,39.33
2022-11-14T15:08:17.209Z,41.75
2022-11-14T15:11:03.914Z,37.40
2022-11-14T15:13:55.249Z,42.25
2022-11-14T15:16:44.363Z,37.92
2022-11-14T15:19:43.174Z,37.88
2022-11-14T15:22:33.015Z,33.55
2022-11-14T15:25:20.431Z,35.60
2022-11-14T15:28:19.761Z,34.15
2022-11-14T15:31:05.805Z,34.70
2022-11-14T15:34:21.714Z,28.90
2022-11-14T15:37:14.801Z,31.27
2022-11-14T15:40:20.989Z,30.00
2022-11-14T15:43:44.823Z,34.10
2022-11-14T15:46:43.882Z,30.73
2022-11-14T15:49:29.347Z,32.33
2022-11-14T15:52:28.949Z,26.60
2022-11-14T15:55:20.883Z,28.98
2022-11-14T15:58:28.721Z,28.77
2022-11-14T16:01:24.032Z,27.25
2022-11-14T16:04:19.155Z,28.02
2022-11-14T16:07:07.108Z,30.63
2022-11-14T16:09:52.719Z,26.08
2022-11-14T16:12:40.502Z,24.02
2022-11-14T16:15:26.024Z,27.13
2022-11-14T16:18:12.332Z,26.13
2022-11-14T16:20:59.673Z,26.10
2022-11-14T16:23:45.465Z,22.40
2022-11-14T16:26:31.356Z,24.17
2022-11-14T16:29:19.760Z,22.20
2022-11-14T16:32:05.404Z,24.95
2022-11-14T16:34:51.023Z,26.38
2022-11-14T16:37:37.962Z,29.65
2022-11-14T16:40:28.026Z,25.85
2022-11-14T16:43:15.210Z,27.63
2022-11-14T16:46:05.505Z,25.00
2022-11-14T16:48:52.520Z,25.52
2022-11-14T16:51:47.640Z,27.80
2022-11-14T16:54:37.071Z,24.58
2022-11-14T16:57:24.502Z,29.55
2022-11-14T17:00:12.871Z,30.77
2022-11-14T17:02:59.328Z,28.17
2022-11-14T17:05:52.064Z,27.08
2022-11-14T17:08:37.929Z,31.50
2022-11-14T17:11:26.201Z,27.83
2022-11-14T17:14:13.656Z,29.45
2022-11-14T17:17:03.340Z,28.98
2022-11-14T17:19:52.449Z,25.65
2022-11-14T17:22:38.220Z,29.98
2022-11-14T17:25:25.739Z,31.85
2022-11-14T17:28:14.401Z,32.05
2022-11-14T17:31:00.420Z,33.67
2022-11-14T17:33:57.055Z,32.20
2022-11-14T17:36:46.201Z,31.45
2022-11-14T17:39:35.730Z,35.40
2022-11-14T17:42:23.398Z,31.55
2022-11-14T17:45:09.599Z,35.47
2022-11-14T17:47:56.738Z,32.10
2022-11-14T17:50:44.526Z,34.25
2022-11-14T17:53:34.540Z,34.45
2022-11-14T17:56:23.824Z,36.33
2022-11-14T17:59:10.245Z,41.17
2022-11-14T18:02:00.401Z,42.15
2022-11-14T18:04:48.842Z,46.38
2022-11-14T18:07:34.406Z,40.53
2022-11-14T18:10:20.012Z,42.20
2022-11-14T18:13:06.440Z,48.80
2022-11-14T18:15:52.620Z,43.20
2022-11-14T18:18:39.922Z,51.72
2022-11-14T18:21:26.378Z,46.10
2022-11-14T18:24:15.126Z,47.22
2022-11-14T18:27:01.283Z,47.58
2022-11-14T18:29:46.942Z,49.75
2022-11-14T18:32:32.454Z,50.53
2022-11-14T18:35:18.201Z,47.70
2022-11-14T18:38:04.884Z,48.60
2022-11-14T18:40:56.930Z,51.30
2022-11-14T18:43:44.510Z,48.05
2022-11-14T18:46:36.891Z,50.72
2022-11-14T18:49:23.391Z,45.90
2022-11-14T18:52:15.809Z,50.50
2022-11-14T18:55:29.439Z,57.30
2022-11-14T18:58:15.193Z,47.47
2022-11-14T19:01:12.328Z,50.47
2022-11-14T19:04:00.006Z,52.50
2022-11-14T19:06:46.569Z,48.35
2022-11-14T19:09:33.404Z,46.10
2022-11-14T19:12:22.016Z,47.88
2022-11-14T19:15:11.255Z,45.40
2022-11-14T19:17:58.454Z,43.63
2022-11-14T19:20:59.153Z,50.72
2022-11-14T19:23:46.586Z,48.50
2022-11-14T19:26:32.242Z,47.28
2022-11-14T19:29:17.743Z,50.92
2022-11-14T19:32:05.875Z,52.35
2022-11-14T19:34:51.605Z,47.35
2022-11-14T19:37:36.927Z,48.55
2022-11-14T19:40:23.987Z,51.13
2022-11-14T19:43:11.456Z,45.33
2022-11-14T19:46:02.768Z,51.92
2022-11-14T19:48:51.093Z,49.35
2022-11-14T19:51:36.805Z,50.53
2022-11-14T19:54:22.766Z,46.88
2022-11-14T19:57:10.129Z,44.10
2022-11-14T19:59:55.935Z,47.78
2022-11-14T20:02:41.473Z,47.80
2022-11-14T20:05:27.834Z,51.63
2022-11-14T20:08:13.566Z,47.38
2022-11-14T20:11:01.736Z,54.08
2022-11-14T20:13:48.071Z,42.88
2022-11-14T20:16:36.606Z,55.45
2022-11-14T20:19:22.299Z,53.15
2022-11-14T20:22:10.466Z,49.75
2022-11-14T20:24:55.972Z,56.28
2022-11-14T20:27:42.753Z,53.55
2022-11-14T20:30:28.918Z,53.25
2022-11-14T20:33:19.093Z,58.10
2022-11-14T20:36:06.595Z,50.45
2022-11-14T20:38:53.618Z,50.78
2022-11-14T20:41:39.355Z,52.10
2022-11-14T20:44:28.700Z,56.22
2022-11-14T20:47:18.570Z,53.45
2022-11-14T20:50:04.780Z,54.28
2022-11-14T20:52:51.627Z,52.55
2022-11-14T20:55:37.818Z,54.03
2022-11-14T20:58:25.066Z,58.33
2022-11-14T21:01:11.793Z,60.10
2022-11-14T21:03:59.855Z,62.20
2022-11-14T21:06:45.873Z,47.55
2022-11-14T21:09:39.490Z,50.88
2022-11-14T21:16:45.683Z,49.83
2022-11-14T21:19:31.597Z,53.08
2022-11-14T21:22:17.385Z,54.58
2022-11-14T21:25:03.880Z,55.50
2022-11-14T21:27:49.382Z,55.53
2022-11-14T21:30:35.451Z,50.67
2022-11-14T21:33:21.522Z,52.20
2022-11-14T21:36:42.844Z,52.20
2022-11-14T21:39:18.532Z,54.95
2022-11-14T21:42:04.494Z,48.75
2022-11-14T21:44:49.804Z,51.67
2022-11-14T21:47:40.489Z,49.97
2022-11-14T21:50:26.019Z,41.47
2022-11-14T21:53:16.101Z,43.33
2022-11-14T21:56:24.521Z,41.08
2022-11-14T21:59:17.680Z,41.60
2022-11-14T22:05:09.636Z,40.13
2022-11-14T22:11:03.624Z,38.58
2022-11-14T22:13:50.407Z,39.38
2022-11-14T22:16:38.243Z,39.08
2022-11-14T22:19:25.781Z,40.80
2022-11-14T22:22:11.324Z,36.50
2022-11-14T22:24:56.756Z,35.90
2022-11-14T22:27:45.698Z,37.47
2022-11-14T22:30:30.853Z,33.22
2022-11-14T22:33:16.406Z,36.17
2022-11-14T22:36:13.906Z,36.90
2022-11-14T22:39:00.885Z,36.35
2022-11-14T22:41:46.410Z,33.92
2022-11-14T22:44:31.882Z,35.20
2022-11-14T22:47:17.495Z,34.35
2022-11-14T22:50:04.155Z,28.77
2022-11-14T22:52:49.504Z,37.10
2022-11-14T22:55:37.665Z,26.67
2022-11-14T22:58:24.383Z,32.95
2022-11-14T23:01:21.611Z,27.30
2022-11-14T23:04:09.814Z,32.10
2022-11-14T23:06:56.115Z,30.42
2022-11-14T23:09:44.764Z,24.10
2022-11-14T23:12:30.082Z,29.75
2022-11-14T23:15:15.609Z,32.05
2022-11-14T23:18:02.400Z,26.77
2022-11-14T23:20:51.339Z,24.85
2022-11-14T23:23:37.392Z,25.52
2022-11-14T23:26:24.823Z,28.45
2022-11-14T23:29:14.845Z,28.58
2022-11-14T23:32:01.501Z,33.83
2022-11-14T23:34:47.520Z,33.35
2022-11-14T23:37:34.475Z,29.33
2022-11-14T23:40:20.328Z,32.17
2022-11-14T23:43:05.664Z,32.53
2022-11-14T23:45:52.139Z,32.22
2022-11-14T23:48:37.512Z,30.60
2022-11-14T23:51:23.064Z,33.53
2022-11-14T23:54:11.195Z,34.58
2022-11-14T23:57:02.906Z,35.22
